sensor_id;sensor_type;location;lat;lon;timestamp;P1;durP1;ratioP1;P2;durP2;ratioP2
64401;SDS011;50724;42.376;23.768;2024-03-02T00:00:55;63.40;;;16.20;;
64401;SDS011;50724;42.376;23.768;2024-03-02T00:03:55;60.90;;;17.35;;
64401;SDS011;50724;42.376;23.768;2024-03-02T00:06:56;58.85;;;16.17;;
64401;SDS011;50724;42.376;23.768;2024-03-02T00:09:56;52.72;;;17.08;;
64401;SDS011;50724;42.376;23.768;2024-03-02T00:12:57;52.80;;;15.18;;
64401;SDS011;50724;42.376;23.768;2024-03-02T00:15:58;51.38;;;16.10;;
64401;SDS011;50724;42.376;23.768;2024-03-02T00:19:02;43.75;;;13.32;;
64401;SDS011;50724;42.376;23.768;2024-03-02T00:22:04;29.98;;;9.45;;
64401;SDS011;50724;42.376;23.768;2024-03-02T00:25:04;33.40;;;11.52;;
64401;SDS011;50724;42.376;23.768;2024-03-02T00:28:05;44.38;;;13.77;;
64401;SDS011;50724;42.376;23.768;2024-03-02T00:34:14;47.55;;;14.73;;
64401;SDS011;50724;42.376;23.768;2024-03-02T00:37:18;42.10;;;13.77;;
64401;SDS011;50724;42.376;23.768;2024-03-02T00:40:18;36.88;;;14.48;;
64401;SDS011;50724;42.376;23.768;2024-03-02T00:46:57;43.08;;;13.18;;
64401;SDS011;50724;42.376;23.768;2024-03-02T00:49:59;39.05;;;13.00;;
64401;SDS011;50724;42.376;23.768;2024-03-02T00:53:01;46.17;;;15.07;;
64401;SDS011;50724;42.376;23.768;2024-03-02T00:56:02;42.58;;;13.98;;
64401;SDS011;50724;42.376;23.768;2024-03-02T00:59:03;47.90;;;15.95;;
64401;SDS011;50724;42.376;23.768;2024-03-02T01:02:03;50.17;;;15.18;;
64401;SDS011;50724;42.376;23.768;2024-03-02T01:05:12;49.03;;;15.02;;
64401;SDS011;50724;42.376;23.768;2024-03-02T01:08:13;45.15;;;13.35;;
64401;SDS011;50724;42.376;23.768;2024-03-02T01:11:13;49.83;;;16.42;;
64401;SDS011;50724;42.376;23.768;2024-03-02T01:14:14;50.25;;;15.02;;
64401;SDS011;50724;42.376;23.768;2024-03-02T01:17:14;44.38;;;13.90;;
64401;SDS011;50724;42.376;23.768;2024-03-02T01:20:15;63.03;;;15.18;;
64401;SDS011;50724;42.376;23.768;2024-03-02T01:23:15;59.17;;;17.10;;
64401;SDS011;50724;42.376;23.768;2024-03-02T01:26:15;50.00;;;15.40;;
64401;SDS011;50724;42.376;23.768;2024-03-02T01:29:16;61.70;;;16.48;;
64401;SDS011;50724;42.376;23.768;2024-03-02T01:32:16;52.85;;;14.35;;
64401;SDS011;50724;42.376;23.768;2024-03-02T01:35:17;54.72;;;15.65;;
64401;SDS011;50724;42.376;23.768;2024-03-02T01:38:17;53.33;;;14.65;;
64401;SDS011;50724;42.376;23.768;2024-03-02T01:41:17;54.70;;;15.75;;
64401;SDS011;50724;42.376;23.768;2024-03-02T01:44:18;67.53;;;15.57;;
64401;SDS011;50724;42.376;23.768;2024-03-02T01:47:18;72.75;;;17.92;;
64401;SDS011;50724;42.376;23.768;2024-03-02T01:50:29;137.75;;;17.08;;
64401;SDS011;50724;42.376;23.768;2024-03-02T01:53:31;89.03;;;15.13;;
64401;SDS011;50724;42.376;23.768;2024-03-02T01:56:32;61.35;;;13.52;;
64401;SDS011;50724;42.376;23.768;2024-03-02T01:59:32;128.88;;;18.17;;
64401;SDS011;50724;42.376;23.768;2024-03-02T02:02:33;69.68;;;13.32;;
64401;SDS011;50724;42.376;23.768;2024-03-02T02:05:34;75.27;;;13.43;;
64401;SDS011;50724;42.376;23.768;2024-03-02T02:08:36;63.28;;;13.23;;
64401;SDS011;50724;42.376;23.768;2024-03-02T02:11:37;66.68;;;12.20;;
64401;SDS011;50724;42.376;23.768;2024-03-02T02:14:38;97.07;;;15.65;;
64401;SDS011;50724;42.376;23.768;2024-03-02T02:17:40;71.78;;;12.90;;
64401;SDS011;50724;42.376;23.768;2024-03-02T02:20:40;51.50;;;13.20;;
64401;SDS011;50724;42.376;23.768;2024-03-02T02:23:40;47.90;;;13.63;;
64401;SDS011;50724;42.376;23.768;2024-03-02T02:26:46;49.20;;;13.90;;
64401;SDS011;50724;42.376;23.768;2024-03-02T02:29:46;43.70;;;14.43;;
64401;SDS011;50724;42.376;23.768;2024-03-02T02:32:47;44.10;;;13.75;;
64401;SDS011;50724;42.376;23.768;2024-03-02T02:35:47;41.58;;;13.48;;
64401;SDS011;50724;42.376;23.768;2024-03-02T02:38:48;41.45;;;14.07;;
64401;SDS011;50724;42.376;23.768;2024-03-02T02:41:49;44.67;;;13.73;;
64401;SDS011;50724;42.376;23.768;2024-03-02T02:44:49;40.08;;;12.50;;
64401;SDS011;50724;42.376;23.768;2024-03-02T02:47:50;41.70;;;14.38;;
64401;SDS011;50724;42.376;23.768;2024-03-02T02:50:50;39.85;;;14.45;;
64401;SDS011;50724;42.376;23.768;2024-03-02T02:53:51;40.22;;;13.10;;
64401;SDS011;50724;42.376;23.768;2024-03-02T02:56:51;51.55;;;14.93;;
64401;SDS011;50724;42.376;23.768;2024-03-02T02:59:52;42.58;;;13.88;;
64401;SDS011;50724;42.376;23.768;2024-03-02T03:02:52;42.40;;;13.43;;
64401;SDS011;50724;42.376;23.768;2024-03-02T03:05:53;44.95;;;15.20;;
64401;SDS011;50724;42.376;23.768;2024-03-02T03:08:53;55.35;;;16.70;;
64401;SDS011;50724;42.376;23.768;2024-03-02T03:11:54;51.38;;;15.75;;
64401;SDS011;50724;42.376;23.768;2024-03-02T03:14:55;49.80;;;15.02;;
64401;SDS011;50724;42.376;23.768;2024-03-02T03:17:55;59.35;;;15.73;;
64401;SDS011;50724;42.376;23.768;2024-03-02T03:20:55;102.43;;;20.33;;
64401;SDS011;50724;42.376;23.768;2024-03-02T03:23:56;89.20;;;15.25;;
64401;SDS011;50724;42.376;23.768;2024-03-02T03:26:56;145.87;;;16.07;;
64401;SDS011;50724;42.376;23.768;2024-03-02T03:29:57;218.45;;;19.90;;
64401;SDS011;50724;42.376;23.768;2024-03-02T03:32:57;158.30;;;16.10;;
64401;SDS011;50724;42.376;23.768;2024-03-02T03:35:58;131.33;;;18.93;;
64401;SDS011;50724;42.376;23.768;2024-03-02T03:38:58;96.23;;;16.57;;
64401;SDS011;50724;42.376;23.768;2024-03-02T03:41:58;148.32;;;14.73;;
64401;SDS011;50724;42.376;23.768;2024-03-02T03:44:59;153.13;;;15.75;;
64401;SDS011;50724;42.376;23.768;2024-03-02T03:47:59;163.43;;;17.13;;
64401;SDS011;50724;42.376;23.768;2024-03-02T03:51:08;206.60;;;19.90;;
64401;SDS011;50724;42.376;23.768;2024-03-02T03:54:09;242.38;;;23.85;;
64401;SDS011;50724;42.376;23.768;2024-03-02T03:57:11;198.25;;;19.52;;
64401;SDS011;50724;42.376;23.768;2024-03-02T04:00:11;284.30;;;21.23;;
64401;SDS011;50724;42.376;23.768;2024-03-02T04:03:12;209.07;;;20.08;;
64401;SDS011;50724;42.376;23.768;2024-03-02T04:06:13;304.90;;;26.60;;
64401;SDS011;50724;42.376;23.768;2024-03-02T04:09:14;728.95;;;100.55;;
64401;SDS011;50724;42.376;23.768;2024-03-02T04:12:14;362.35;;;43.78;;
64401;SDS011;50724;42.376;23.768;2024-03-02T04:15:14;214.45;;;23.38;;
64401;SDS011;50724;42.376;23.768;2024-03-02T04:18:15;199.32;;;19.52;;
64401;SDS011;50724;42.376;23.768;2024-03-02T04:21:16;219.38;;;19.83;;
64401;SDS011;50724;42.376;23.768;2024-03-02T04:24:16;209.23;;;18.05;;
64401;SDS011;50724;42.376;23.768;2024-03-02T04:27:17;254.23;;;20.45;;
64401;SDS011;50724;42.376;23.768;2024-03-02T04:30:17;317.00;;;30.50;;
64401;SDS011;50724;42.376;23.768;2024-03-02T04:33:18;592.92;;;92.18;;
64401;SDS011;50724;42.376;23.768;2024-03-02T04:36:18;319.25;;;25.95;;
64401;SDS011;50724;42.376;23.768;2024-03-02T04:39:18;256.15;;;21.83;;
64401;SDS011;50724;42.376;23.768;2024-03-02T04:42:19;197.82;;;17.35;;
64401;SDS011;50724;42.376;23.768;2024-03-02T04:45:19;198.48;;;18.05;;
64401;SDS011;50724;42.376;23.768;2024-03-02T04:48:20;195.43;;;17.17;;
64401;SDS011;50724;42.376;23.768;2024-03-02T04:51:22;194.15;;;20.73;;
64401;SDS011;50724;42.376;23.768;2024-03-02T04:54:22;853.38;;;129.38;;
64401;SDS011;50724;42.376;23.768;2024-03-02T04:57:23;335.55;;;30.35;;
64401;SDS011;50724;42.376;23.768;2024-03-02T05:00:23;268.80;;;31.27;;
64401;SDS011;50724;42.376;23.768;2024-03-02T05:03:24;174.30;;;21.23;;
64401;SDS011;50724;42.376;23.768;2024-03-02T05:06:24;120.03;;;12.75;;
64401;SDS011;50724;42.376;23.768;2024-03-02T05:09:25;195.25;;;20.83;;
64401;SDS011;50724;42.376;23.768;2024-03-02T05:12:25;124.60;;;15.93;;
64401;SDS011;50724;42.376;23.768;2024-03-02T05:15:44;176.00;;;16.50;;
64401;SDS011;50724;42.376;23.768;2024-03-02T05:18:44;564.67;;;93.78;;
64401;SDS011;50724;42.376;23.768;2024-03-02T05:21:45;232.27;;;34.72;;
64401;SDS011;50724;42.376;23.768;2024-03-02T05:24:45;147.60;;;14.90;;
64401;SDS011;50724;42.376;23.768;2024-03-02T05:27:46;223.32;;;21.98;;
64401;SDS011;50724;42.376;23.768;2024-03-02T05:30:46;153.73;;;16.43;;
64401;SDS011;50724;42.376;23.768;2024-03-02T05:33:47;246.25;;;18.38;;
64401;SDS011;50724;42.376;23.768;2024-03-02T05:36:47;252.40;;;19.20;;
64401;SDS011;50724;42.376;23.768;2024-03-02T05:39:48;161.30;;;15.98;;
64401;SDS011;50724;42.376;23.768;2024-03-02T05:42:48;168.32;;;16.60;;
64401;SDS011;50724;42.376;23.768;2024-03-02T05:45:49;141.50;;;23.85;;
64401;SDS011;50724;42.376;23.768;2024-03-02T05:48:49;119.15;;;22.05;;
64401;SDS011;50724;42.376;23.768;2024-03-02T05:51:49;134.35;;;20.77;;
64401;SDS011;50724;42.376;23.768;2024-03-02T05:54:50;99.35;;;13.35;;
64401;SDS011;50724;42.376;23.768;2024-03-02T05:57:50;112.17;;;14.30;;
64401;SDS011;50724;42.376;23.768;2024-03-02T06:01:06;357.10;;;57.47;;
64401;SDS011;50724;42.376;23.768;2024-03-02T06:04:07;346.52;;;46.17;;
64401;SDS011;50724;42.376;23.768;2024-03-02T06:07:07;111.60;;;22.45;;
64401;SDS011;50724;42.376;23.768;2024-03-02T06:10:07;98.68;;;21.20;;
64401;SDS011;50724;42.376;23.768;2024-03-02T06:13:08;81.78;;;21.45;;
64401;SDS011;50724;42.376;23.768;2024-03-02T06:16:09;60.80;;;18.38;;
64401;SDS011;50724;42.376;23.768;2024-03-02T06:19:09;119.43;;;14.23;;
64401;SDS011;50724;42.376;23.768;2024-03-02T06:22:10;97.18;;;12.52;;
64401;SDS011;50724;42.376;23.768;2024-03-02T06:28:20;69.00;;;17.90;;
64401;SDS011;50724;42.376;23.768;2024-03-02T06:31:20;85.85;;;14.07;;
64401;SDS011;50724;42.376;23.768;2024-03-02T06:34:21;83.65;;;13.70;;
64401;SDS011;50724;42.376;23.768;2024-03-02T06:37:21;42.67;;;13.93;;
64401;SDS011;50724;42.376;23.768;2024-03-02T06:40:22;42.00;;;13.02;;
64401;SDS011;50724;42.376;23.768;2024-03-02T06:43:22;92.00;;;13.25;;
64401;SDS011;50724;42.376;23.768;2024-03-02T06:46:23;88.45;;;16.05;;
64401;SDS011;50724;42.376;23.768;2024-03-02T06:49:23;125.05;;;22.08;;
64401;SDS011;50724;42.376;23.768;2024-03-02T06:52:24;78.10;;;14.93;;
64401;SDS011;50724;42.376;23.768;2024-03-02T06:55:25;54.25;;;13.77;;
64401;SDS011;50724;42.376;23.768;2024-03-02T06:58:25;45.60;;;14.07;;
64401;SDS011;50724;42.376;23.768;2024-03-02T07:01:25;36.42;;;13.00;;
64401;SDS011;50724;42.376;23.768;2024-03-02T07:04:26;52.40;;;14.55;;
64401;SDS011;50724;42.376;23.768;2024-03-02T07:07:26;39.33;;;13.13;;
64401;SDS011;50724;42.376;23.768;2024-03-02T07:10:27;97.60;;;18.75;;
64401;SDS011;50724;42.376;23.768;2024-03-02T07:13:27;67.13;;;16.55;;
64401;SDS011;50724;42.376;23.768;2024-03-02T07:16:28;47.38;;;16.88;;
64401;SDS011;50724;42.376;23.768;2024-03-02T07:23:32;48.10;;;15.20;;
64401;SDS011;50724;42.376;23.768;2024-03-02T07:26:34;49.47;;;16.30;;
64401;SDS011;50724;42.376;23.768;2024-03-02T07:29:34;40.55;;;13.60;;
64401;SDS011;50724;42.376;23.768;2024-03-02T07:32:35;44.05;;;14.73;;
64401;SDS011;50724;42.376;23.768;2024-03-02T07:35:35;38.58;;;13.48;;
64401;SDS011;50724;42.376;23.768;2024-03-02T07:38:36;33.22;;;13.00;;
64401;SDS011;50724;42.376;23.768;2024-03-02T07:41:36;46.75;;;13.02;;
64401;SDS011;50724;42.376;23.768;2024-03-02T07:44:37;36.22;;;12.57;;
64401;SDS011;50724;42.376;23.768;2024-03-02T07:47:37;41.67;;;13.82;;
64401;SDS011;50724;42.376;23.768;2024-03-02T07:50:38;37.78;;;15.52;;
64401;SDS011;50724;42.376;23.768;2024-03-02T07:53:39;43.67;;;15.75;;
64401;SDS011;50724;42.376;23.768;2024-03-02T07:56:39;194.63;;;44.97;;
64401;SDS011;50724;42.376;23.768;2024-03-02T07:59:40;43.08;;;14.50;;
64401;SDS011;50724;42.376;23.768;2024-03-02T08:02:40;40.53;;;14.35;;
64401;SDS011;50724;42.376;23.768;2024-03-02T08:05:42;39.22;;;15.45;;
64401;SDS011;50724;42.376;23.768;2024-03-02T08:08:42;34.70;;;12.75;;
64401;SDS011;50724;42.376;23.768;2024-03-02T08:11:43;38.53;;;12.40;;
64401;SDS011;50724;42.376;23.768;2024-03-02T08:14:53;131.45;;;28.58;;
64401;SDS011;50724;42.376;23.768;2024-03-02T08:17:54;370.50;;;65.40;;
64401;SDS011;50724;42.376;23.768;2024-03-02T08:20:56;60.03;;;17.35;;
64401;SDS011;50724;42.376;23.768;2024-03-02T08:23:56;37.88;;;12.48;;
64401;SDS011;50724;42.376;23.768;2024-03-02T08:26:59;34.05;;;12.55;;
64401;SDS011;50724;42.376;23.768;2024-03-02T08:30:00;46.97;;;12.77;;
64401;SDS011;50724;42.376;23.768;2024-03-02T08:33:00;42.58;;;14.48;;
64401;SDS011;50724;42.376;23.768;2024-03-02T08:36:01;50.03;;;17.30;;
64401;SDS011;50724;42.376;23.768;2024-03-02T08:39:01;182.10;;;35.47;;
64401;SDS011;50724;42.376;23.768;2024-03-02T08:42:03;418.98;;;73.00;;
64401;SDS011;50724;42.376;23.768;2024-03-02T08:45:04;35.53;;;11.73;;
64401;SDS011;50724;42.376;23.768;2024-03-02T08:48:07;38.10;;;13.60;;
64401;SDS011;50724;42.376;23.768;2024-03-02T08:51:19;47.90;;;20.05;;
64401;SDS011;50724;42.376;23.768;2024-03-02T08:54:28;40.13;;;19.42;;
64401;SDS011;50724;42.376;23.768;2024-03-02T08:57:29;31.50;;;10.55;;
64401;SDS011;50724;42.376;23.768;2024-03-02T09:00:30;32.35;;;10.32;;
64401;SDS011;50724;42.376;23.768;2024-03-02T09:03:30;30.70;;;10.48;;
64401;SDS011;50724;42.376;23.768;2024-03-02T09:09:33;31.73;;;9.68;;
64401;SDS011;50724;42.376;23.768;2024-03-02T09:12:34;24.70;;;8.87;;
64401;SDS011;50724;42.376;23.768;2024-03-02T09:15:35;27.48;;;11.77;;
64401;SDS011;50724;42.376;23.768;2024-03-02T09:18:37;31.88;;;15.27;;
64401;SDS011;50724;42.376;23.768;2024-03-02T09:21:38;30.83;;;11.48;;
64401;SDS011;50724;42.376;23.768;2024-03-02T09:24:38;29.00;;;10.77;;
64401;SDS011;50724;42.376;23.768;2024-03-02T09:27:39;262.63;;;57.67;;
64401;SDS011;50724;42.376;23.768;2024-03-02T09:30:40;26.35;;;9.90;;
64401;SDS011;50724;42.376;23.768;2024-03-02T09:33:40;25.27;;;9.13;;
64401;SDS011;50724;42.376;23.768;2024-03-02T09:36:41;22.27;;;9.25;;
64401;SDS011;50724;42.376;23.768;2024-03-02T09:39:43;22.67;;;11.85;;
64401;SDS011;50724;42.376;23.768;2024-03-02T09:42:44;20.63;;;8.30;;
64401;SDS011;50724;42.376;23.768;2024-03-02T09:45:45;19.50;;;8.88;;
64401;SDS011;50724;42.376;23.768;2024-03-02T09:48:46;22.48;;;8.20;;
64401;SDS011;50724;42.376;23.768;2024-03-02T09:51:47;88.35;;;20.67;;
64401;SDS011;50724;42.376;23.768;2024-03-02T09:54:49;91.90;;;30.55;;
64401;SDS011;50724;42.376;23.768;2024-03-02T09:57:49;22.73;;;10.55;;
64401;SDS011;50724;42.376;23.768;2024-03-02T10:00:51;18.65;;;8.95;;
64401;SDS011;50724;42.376;23.768;2024-03-02T10:03:51;19.83;;;8.32;;
64401;SDS011;50724;42.376;23.768;2024-03-02T10:07:26;21.90;;;7.20;;
64401;SDS011;50724;42.376;23.768;2024-03-02T10:10:20;17.00;;;7.20;;
64401;SDS011;50724;42.376;23.768;2024-03-02T10:13:21;19.75;;;9.05;;
64401;SDS011;50724;42.376;23.768;2024-03-02T10:16:25;168.18;;;39.55;;
64401;SDS011;50724;42.376;23.768;2024-03-02T10:19:25;16.35;;;7.28;;
64401;SDS011;50724;42.376;23.768;2024-03-02T10:22:26;18.30;;;6.68;;
64401;SDS011;50724;42.376;23.768;2024-03-02T10:25:33;17.75;;;9.93;;
64401;SDS011;50724;42.376;23.768;2024-03-02T10:28:34;17.02;;;9.43;;
64401;SDS011;50724;42.376;23.768;2024-03-02T10:31:34;13.18;;;6.25;;
64401;SDS011;50724;42.376;23.768;2024-03-02T10:34:35;220.35;;;47.97;;
64401;SDS011;50724;42.376;23.768;2024-03-02T10:37:36;214.90;;;42.38;;
64401;SDS011;50724;42.376;23.768;2024-03-02T10:40:36;21.08;;;8.35;;
64401;SDS011;50724;42.376;23.768;2024-03-02T10:43:37;15.67;;;7.33;;
64401;SDS011;50724;42.376;23.768;2024-03-02T10:46:38;11.43;;;5.30;;
64401;SDS011;50724;42.376;23.768;2024-03-02T10:49:38;11.48;;;5.60;;
64401;SDS011;50724;42.376;23.768;2024-03-02T10:52:42;14.43;;;7.20;;
64401;SDS011;50724;42.376;23.768;2024-03-02T10:55:55;12.15;;;4.95;;
64401;SDS011;50724;42.376;23.768;2024-03-02T11:05:12;15.20;;;6.40;;
64401;SDS011;50724;42.376;23.768;2024-03-02T11:08:20;9.15;;;4.82;;
64401;SDS011;50724;42.376;23.768;2024-03-02T11:11:27;9.35;;;4.90;;
64401;SDS011;50724;42.376;23.768;2024-03-02T11:14:34;11.82;;;5.80;;
64401;SDS011;50724;42.376;23.768;2024-03-02T11:17:40;13.43;;;5.93;;
64401;SDS011;50724;42.376;23.768;2024-03-02T11:20:41;9.25;;;4.65;;
64401;SDS011;50724;42.376;23.768;2024-03-02T11:23:43;10.45;;;4.90;;
64401;SDS011;50724;42.376;23.768;2024-03-02T11:26:44;9.90;;;4.72;;
64401;SDS011;50724;42.376;23.768;2024-03-02T11:29:45;11.38;;;6.05;;
64401;SDS011;50724;42.376;23.768;2024-03-02T11:32:54;11.63;;;5.68;;
64401;SDS011;50724;42.376;23.768;2024-03-02T11:35:55;13.23;;;6.60;;
64401;SDS011;50724;42.376;23.768;2024-03-02T11:38:56;10.93;;;6.68;;
64401;SDS011;50724;42.376;23.768;2024-03-02T11:41:57;14.20;;;8.73;;
64401;SDS011;50724;42.376;23.768;2024-03-02T11:44:58;16.27;;;7.97;;
64401;SDS011;50724;42.376;23.768;2024-03-02T11:47:59;73.10;;;29.27;;
64401;SDS011;50724;42.376;23.768;2024-03-02T11:51:05;22.48;;;9.90;;
64401;SDS011;50724;42.376;23.768;2024-03-02T11:54:06;19.23;;;8.30;;
64401;SDS011;50724;42.376;23.768;2024-03-02T11:57:07;30.52;;;12.07;;
64401;SDS011;50724;42.376;23.768;2024-03-02T12:00:16;40.83;;;13.45;;
64401;SDS011;50724;42.376;23.768;2024-03-02T12:03:17;36.05;;;13.23;;
64401;SDS011;50724;42.376;23.768;2024-03-02T12:09:21;43.97;;;12.57;;
64401;SDS011;50724;42.376;23.768;2024-03-02T12:12:22;15.80;;;6.90;;
64401;SDS011;50724;42.376;23.768;2024-03-02T12:15:26;12.43;;;6.03;;
64401;SDS011;50724;42.376;23.768;2024-03-02T12:18:28;14.15;;;6.38;;
64401;SDS011;50724;42.376;23.768;2024-03-02T12:21:29;15.20;;;7.32;;
64401;SDS011;50724;42.376;23.768;2024-03-02T12:24:29;10.90;;;5.20;;
64401;SDS011;50724;42.376;23.768;2024-03-02T12:27:30;13.18;;;6.10;;
64401;SDS011;50724;42.376;23.768;2024-03-02T12:30:31;13.80;;;6.32;;
64401;SDS011;50724;42.376;23.768;2024-03-02T12:33:35;11.70;;;5.05;;
64401;SDS011;50724;42.376;23.768;2024-03-02T12:36:39;9.70;;;4.63;;
64401;SDS011;50724;42.376;23.768;2024-03-02T12:39:44;9.13;;;4.38;;
64401;SDS011;50724;42.376;23.768;2024-03-02T12:42:46;7.53;;;3.83;;
64401;SDS011;50724;42.376;23.768;2024-03-02T12:45:55;7.45;;;4.15;;
64401;SDS011;50724;42.376;23.768;2024-03-02T12:48:56;11.80;;;5.35;;
64401;SDS011;50724;42.376;23.768;2024-03-02T12:51:56;9.77;;;4.18;;
64401;SDS011;50724;42.376;23.768;2024-03-02T12:54:58;8.20;;;4.28;;
64401;SDS011;50724;42.376;23.768;2024-03-02T12:58:04;6.25;;;3.22;;
64401;SDS011;50724;42.376;23.768;2024-03-02T13:01:07;8.45;;;4.05;;
64401;SDS011;50724;42.376;23.768;2024-03-02T13:04:11;8.63;;;4.28;;
64401;SDS011;50724;42.376;23.768;2024-03-02T13:07:20;10.25;;;4.53;;
64401;SDS011;50724;42.376;23.768;2024-03-02T13:10:22;9.15;;;4.85;;
64401;SDS011;50724;42.376;23.768;2024-03-02T13:13:22;8.07;;;4.40;;
64401;SDS011;50724;42.376;23.768;2024-03-02T13:16:23;11.18;;;5.10;;
64401;SDS011;50724;42.376;23.768;2024-03-02T13:19:24;6.25;;;3.08;;
64401;SDS011;50724;42.376;23.768;2024-03-02T13:22:24;10.73;;;4.95;;
64401;SDS011;50724;42.376;23.768;2024-03-02T13:25:26;10.23;;;4.90;;
64401;SDS011;50724;42.376;23.768;2024-03-02T13:28:26;8.45;;;4.63;;
64401;SDS011;50724;42.376;23.768;2024-03-02T13:31:27;10.90;;;4.93;;
64401;SDS011;50724;42.376;23.768;2024-03-02T13:34:28;8.50;;;4.95;;
64401;SDS011;50724;42.376;23.768;2024-03-02T13:37:28;9.30;;;4.50;;
64401;SDS011;50724;42.376;23.768;2024-03-02T13:40:29;11.40;;;5.38;;
64401;SDS011;50724;42.376;23.768;2024-03-02T13:43:35;8.75;;;4.53;;
64401;SDS011;50724;42.376;23.768;2024-03-02T13:46:37;9.63;;;5.00;;
64401;SDS011;50724;42.376;23.768;2024-03-02T13:49:37;9.90;;;5.35;;
64401;SDS011;50724;42.376;23.768;2024-03-02T13:52:43;10.00;;;5.05;;
64401;SDS011;50724;42.376;23.768;2024-03-02T13:55:44;11.98;;;5.82;;
64401;SDS011;50724;42.376;23.768;2024-03-02T13:58:45;13.10;;;6.35;;
64401;SDS011;50724;42.376;23.768;2024-03-02T14:01:46;12.70;;;6.22;;
64401;SDS011;50724;42.376;23.768;2024-03-02T14:04:46;11.55;;;5.68;;
64401;SDS011;50724;42.376;23.768;2024-03-02T14:10:59;9.75;;;4.72;;
64401;SDS011;50724;42.376;23.768;2024-03-02T14:14:00;9.85;;;4.95;;
64401;SDS011;50724;42.376;23.768;2024-03-02T14:17:00;9.48;;;4.85;;
64401;SDS011;50724;42.376;23.768;2024-03-02T14:20:04;9.02;;;5.20;;
64401;SDS011;50724;42.376;23.768;2024-03-02T14:23:05;10.35;;;4.55;;
64401;SDS011;50724;42.376;23.768;2024-03-02T14:26:05;13.40;;;6.30;;
64401;SDS011;50724;42.376;23.768;2024-03-02T14:29:06;11.63;;;5.80;;
64401;SDS011;50724;42.376;23.768;2024-03-02T14:32:06;14.73;;;6.53;;
64401;SDS011;50724;42.376;23.768;2024-03-02T14:35:07;17.60;;;7.72;;
64401;SDS011;50724;42.376;23.768;2024-03-02T14:38:10;14.77;;;7.32;;
64401;SDS011;50724;42.376;23.768;2024-03-02T14:41:11;15.05;;;7.30;;
64401;SDS011;50724;42.376;23.768;2024-03-02T14:44:12;21.02;;;8.57;;
64401;SDS011;50724;42.376;23.768;2024-03-02T14:47:12;16.42;;;7.85;;
64401;SDS011;50724;42.376;23.768;2024-03-02T14:50:13;17.75;;;7.53;;
64401;SDS011;50724;42.376;23.768;2024-03-02T14:53:16;18.23;;;7.65;;
64401;SDS011;50724;42.376;23.768;2024-03-02T14:56:17;13.80;;;6.82;;
64401;SDS011;50724;42.376;23.768;2024-03-02T14:59:17;15.77;;;7.55;;
64401;SDS011;50724;42.376;23.768;2024-03-02T15:02:17;16.88;;;8.18;;
64401;SDS011;50724;42.376;23.768;2024-03-02T15:05:18;15.55;;;7.45;;
64401;SDS011;50724;42.376;23.768;2024-03-02T15:08:19;17.70;;;7.55;;
64401;SDS011;50724;42.376;23.768;2024-03-02T15:11:19;16.77;;;8.30;;
64401;SDS011;50724;42.376;23.768;2024-03-02T15:14:20;18.38;;;8.98;;
64401;SDS011;50724;42.376;23.768;2024-03-02T15:17:21;16.23;;;7.53;;
64401;SDS011;50724;42.376;23.768;2024-03-02T15:20:22;18.75;;;8.02;;
64401;SDS011;50724;42.376;23.768;2024-03-02T15:23:22;19.42;;;8.20;;
64401;SDS011;50724;42.376;23.768;2024-03-02T15:26:22;19.95;;;8.60;;
64401;SDS011;50724;42.376;23.768;2024-03-02T15:29:23;19.95;;;9.60;;
64401;SDS011;50724;42.376;23.768;2024-03-02T15:32:28;17.80;;;8.57;;
64401;SDS011;50724;42.376;23.768;2024-03-02T15:35:29;19.02;;;8.18;;
64401;SDS011;50724;42.376;23.768;2024-03-02T15:38:29;17.27;;;8.13;;
64401;SDS011;50724;42.376;23.768;2024-03-02T15:41:30;15.48;;;7.57;;
64401;SDS011;50724;42.376;23.768;2024-03-02T15:44:30;16.45;;;8.07;;
64401;SDS011;50724;42.376;23.768;2024-03-02T15:47:31;14.63;;;7.80;;
64401;SDS011;50724;42.376;23.768;2024-03-02T15:50:32;14.52;;;7.47;;
64401;SDS011;50724;42.376;23.768;2024-03-02T15:53:32;14.25;;;7.85;;
64401;SDS011;50724;42.376;23.768;2024-03-02T15:56:33;15.25;;;7.82;;
64401;SDS011;50724;42.376;23.768;2024-03-02T15:59:34;22.17;;;8.32;;
64401;SDS011;50724;42.376;23.768;2024-03-02T16:02:34;14.95;;;7.22;;
64401;SDS011;50724;42.376;23.768;2024-03-02T16:05:35;16.85;;;7.55;;
64401;SDS011;50724;42.376;23.768;2024-03-02T16:08:35;13.43;;;6.85;;
64401;SDS011;50724;42.376;23.768;2024-03-02T16:11:36;14.85;;;7.70;;
64401;SDS011;50724;42.376;23.768;2024-03-02T16:14:36;16.77;;;7.78;;
64401;SDS011;50724;42.376;23.768;2024-03-02T16:17:37;14.23;;;7.38;;
64401;SDS011;50724;42.376;23.768;2024-03-02T16:20:37;15.25;;;7.35;;
64401;SDS011;50724;42.376;23.768;2024-03-02T16:23:38;13.65;;;6.93;;
64401;SDS011;50724;42.376;23.768;2024-03-02T16:26:38;16.02;;;7.43;;
64401;SDS011;50724;42.376;23.768;2024-03-02T16:29:39;17.25;;;8.02;;
64401;SDS011;50724;42.376;23.768;2024-03-02T16:32:39;18.58;;;8.85;;
64401;SDS011;50724;42.376;23.768;2024-03-02T16:35:40;16.67;;;7.25;;
64401;SDS011;50724;42.376;23.768;2024-03-02T16:38:40;16.67;;;7.22;;
64401;SDS011;50724;42.376;23.768;2024-03-02T16:41:41;16.25;;;7.35;;
64401;SDS011;50724;42.376;23.768;2024-03-02T16:44:46;16.10;;;7.72;;
64401;SDS011;50724;42.376;23.768;2024-03-02T16:47:53;18.55;;;6.90;;
64401;SDS011;50724;42.376;23.768;2024-03-02T16:50:53;15.40;;;6.83;;
64401;SDS011;50724;42.376;23.768;2024-03-02T16:53:54;16.58;;;6.80;;
64401;SDS011;50724;42.376;23.768;2024-03-02T16:56:54;13.48;;;7.05;;
64401;SDS011;50724;42.376;23.768;2024-03-02T16:59:55;13.15;;;6.38;;
64401;SDS011;50724;42.376;23.768;2024-03-02T17:02:55;14.10;;;6.47;;
64401;SDS011;50724;42.376;23.768;2024-03-02T17:05:55;15.18;;;7.20;;
64401;SDS011;50724;42.376;23.768;2024-03-02T17:08:56;13.05;;;6.47;;
64401;SDS011;50724;42.376;23.768;2024-03-02T17:11:57;17.20;;;7.45;;
64401;SDS011;50724;42.376;23.768;2024-03-02T17:14:57;15.93;;;6.68;;
64401;SDS011;50724;42.376;23.768;2024-03-02T17:17:57;13.25;;;6.38;;
64401;SDS011;50724;42.376;23.768;2024-03-02T17:20:58;16.10;;;6.10;;
64401;SDS011;50724;42.376;23.768;2024-03-02T17:23:58;12.40;;;5.93;;
64401;SDS011;50724;42.376;23.768;2024-03-02T17:27:00;13.57;;;5.60;;
64401;SDS011;50724;42.376;23.768;2024-03-02T17:30:00;10.27;;;5.45;;
64401;SDS011;50724;42.376;23.768;2024-03-02T17:33:01;14.23;;;6.68;;
64401;SDS011;50724;42.376;23.768;2024-03-02T17:36:01;14.07;;;5.57;;
64401;SDS011;50724;42.376;23.768;2024-03-02T17:39:03;12.48;;;5.97;;
64401;SDS011;50724;42.376;23.768;2024-03-02T17:42:04;15.68;;;7.20;;
64401;SDS011;50724;42.376;23.768;2024-03-02T17:45:05;19.08;;;7.60;;
64401;SDS011;50724;42.376;23.768;2024-03-02T17:48:08;15.88;;;7.30;;
64401;SDS011;50724;42.376;23.768;2024-03-02T17:51:11;16.80;;;8.20;;
64401;SDS011;50724;42.376;23.768;2024-03-02T17:54:12;17.38;;;8.40;;
64401;SDS011;50724;42.376;23.768;2024-03-02T17:57:12;18.55;;;9.20;;
64401;SDS011;50724;42.376;23.768;2024-03-02T18:00:13;20.48;;;9.48;;